createdAt,value
2024-02-05T00:00:20.183Z,17.98
2024-02-05T00:02:47.508Z,18.00
2024-02-05T00:05:15.094Z,18.02
2024-02-05T00:07:42.607Z,18.38
2024-02-05T00:10:11.654Z,17.65
2024-02-05T00:12:39.031Z,17.70
2024-02-05T00:15:07.024Z,17.45
2024-02-05T00:17:34.666Z,17.65
2024-02-05T00:20:02.554Z,18.40
2024-02-05T00:22:29.887Z,17.55
2024-02-05T00:24:57.091Z,17.48
2024-02-05T00:27:24.323Z,16.63
2024-02-05T00:29:51.524Z,17.33
2024-02-05T00:32:18.781Z,17.98
2024-02-05T00:34:46.123Z,16.83
2024-02-05T00:37:13.809Z,17.50
2024-02-05T00:39:41.158Z,17.38
2024-02-05T00:42:08.725Z,17.83
2024-02-05T00:44:36.049Z,17.60
2024-02-05T00:47:04.335Z,18.08
2024-02-05T00:49:31.857Z,17.27
2024-02-05T00:51:59.134Z,17.00
2024-02-05T00:54:26.328Z,17.85
2024-02-05T00:56:53.603Z,17.10
2024-02-05T00:59:20.863Z,17.30
2024-02-05T01:01:48.137Z,17.67
2024-02-05T01:04:15.569Z,17.42
2024-02-05T01:06:43.288Z,17.83
2024-02-05T01:09:11.526Z,17.05
2024-02-05T01:11:38.955Z,17.17
2024-02-05T01:14:06.229Z,17.83
2024-02-05T01:16:33.633Z,17.48
2024-02-05T01:19:00.994Z,17.90
2024-02-05T01:21:28.245Z,17.75
2024-02-05T01:23:55.511Z,17.17
2024-02-05T01:26:23.523Z,16.40
2024-02-05T01:28:50.724Z,16.75
2024-02-05T01:31:18.144Z,16.48
2024-02-05T01:33:45.493Z,17.42
2024-02-05T01:36:12.854Z,16.27
2024-02-05T01:38:40.116Z,17.15
2024-02-05T01:41:07.449Z,17.05
2024-02-05T01:43:34.691Z,16.42
2024-02-05T01:46:02.761Z,18.13
2024-02-05T01:48:34.717Z,16.80
2024-02-05T01:51:02.764Z,16.85
2024-02-05T01:53:30.700Z,15.82
2024-02-05T01:55:58.722Z,16.75
2024-02-05T01:58:26.714Z,16.27
2024-02-05T02:00:55.630Z,16.92
2024-02-05T02:03:23.490Z,17.20
2024-02-05T02:05:50.997Z,16.80
2024-02-05T02:08:23.917Z,16.85
2024-02-05T02:10:51.295Z,15.50
2024-02-05T02:13:20.230Z,16.50
2024-02-05T02:15:50.350Z,16.63
2024-02-05T02:18:20.666Z,15.27
2024-02-05T02:20:50.764Z,16.00
2024-02-05T02:23:26.256Z,15.35
2024-02-05T02:25:55.170Z,16.02
2024-02-05T02:28:22.546Z,16.02
2024-02-05T02:30:51.419Z,16.65
2024-02-05T02:33:23.035Z,15.52
2024-02-05T02:35:53.750Z,15.25
2024-02-05T02:38:39.753Z,16.02
2024-02-05T02:41:11.186Z,15.38
2024-02-05T02:43:45.897Z,16.10
2024-02-05T02:46:13.645Z,16.27
2024-02-05T02:48:41.114Z,16.63
2024-02-05T02:51:08.326Z,16.50
2024-02-05T02:53:35.559Z,15.18
2024-02-05T02:56:02.789Z,15.88
2024-02-05T02:58:30.011Z,16.30
2024-02-05T03:00:58.016Z,16.13
2024-02-05T03:03:25.890Z,16.02
2024-02-05T03:05:53.245Z,16.00
2024-02-05T03:08:21.299Z,16.05
2024-02-05T03:10:48.529Z,16.23
2024-02-05T03:13:19.276Z,15.48
2024-02-05T03:15:47.054Z,15.88
2024-02-05T03:18:14.765Z,15.25
2024-02-05T03:20:43.156Z,15.73
2024-02-05T03:23:12.844Z,15.05
2024-02-05T03:25:41.173Z,15.35
2024-02-05T03:28:09.841Z,14.95
2024-02-05T03:30:38.539Z,14.45
2024-02-05T03:33:06.737Z,15.48
2024-02-05T03:35:34.545Z,15.35
2024-02-05T03:38:02.033Z,15.60
2024-02-05T03:40:29.328Z,15.75
2024-02-05T03:42:56.562Z,15.15
2024-02-05T03:45:23.884Z,14.38
2024-02-05T03:47:51.155Z,15.70
2024-02-05T03:50:18.770Z,15.77
2024-02-05T03:52:49.071Z,15.23
2024-02-05T03:55:16.850Z,15.13
2024-02-05T03:57:46.690Z,14.73
2024-02-05T04:00:14.715Z,15.68
2024-02-05T04:02:43.017Z,15.35
2024-02-05T04:05:10.729Z,14.88
2024-02-05T04:07:38.499Z,14.90
2024-02-05T04:10:06.819Z,15.43
2024-02-05T04:12:34.612Z,14.82
2024-02-05T04:15:02.761Z,15.15
2024-02-05T04:17:30.074Z,14.95
2024-02-05T04:19:57.400Z,16.10
2024-02-05T04:22:24.785Z,15.00
2024-02-05T04:24:52.149Z,14.55
2024-02-05T04:27:19.480Z,16.02
2024-02-05T04:29:46.784Z,15.23
2024-02-05T04:32:14.070Z,16.13
2024-02-05T04:34:41.456Z,15.88
2024-02-05T04:37:09.041Z,15.38
2024-02-05T04:39:36.437Z,15.38
2024-02-05T04:42:03.892Z,15.80
2024-02-05T04:44:31.166Z,16.00
2024-02-05T04:46:58.512Z,14.73
2024-02-05T04:49:25.977Z,15.70
2024-02-05T04:51:53.423Z,15.77
2024-02-05T04:54:20.806Z,15.32
2024-02-05T04:56:48.076Z,14.73
2024-02-05T04:59:15.609Z,15.85
2024-02-05T05:01:42.951Z,16.13
2024-02-05T05:04:10.191Z,16.02
2024-02-05T05:06:37.724Z,15.13
2024-02-05T05:09:05.360Z,16.25
2024-02-05T05:11:32.673Z,15.50
2024-02-05T05:13:59.941Z,14.98
2024-02-05T05:16:28.957Z,15.25
2024-02-05T05:18:56.389Z,15.82
2024-02-05T05:21:27.194Z,15.80
2024-02-05T05:23:55.521Z,17.13
2024-02-05T05:26:25.459Z,16.23
2024-02-05T05:28:53.834Z,16.45
2024-02-05T05:31:21.191Z,16.35
2024-02-05T05:33:48.670Z,15.90
2024-02-05T05:36:16.106Z,15.98
2024-02-05T05:38:43.406Z,16.40
2024-02-05T05:41:10.612Z,16.10
2024-02-05T05:43:37.802Z,16.15
2024-02-05T05:46:05.374Z,15.80
2024-02-05T05:48:32.656Z,16.10
2024-02-05T05:50:59.913Z,16.45
2024-02-05T05:53:27.146Z,16.85
2024-02-05T05:55:55.228Z,14.98
2024-02-05T05:58:23.518Z,15.77
2024-02-05T06:00:50.934Z,15.27
2024-02-05T06:03:18.284Z,16.08
2024-02-05T06:05:46.983Z,14.95
2024-02-05T06:08:15.140Z,15.02
2024-02-05T06:10:43.842Z,14.75
2024-02-05T06:13:11.427Z,15.23
2024-02-05T06:15:39.041Z,15.20
2024-02-05T06:18:06.383Z,15.35
2024-02-05T06:20:33.681Z,15.93
2024-02-05T06:23:01.059Z,15.10
2024-02-05T06:25:28.381Z,15.30
2024-02-05T06:27:55.645Z,16.83
2024-02-05T06:30:22.984Z,16.77
2024-02-05T06:32:50.332Z,16.08
2024-02-05T06:35:17.682Z,15.57
2024-02-05T06:37:44.876Z,15.25
2024-02-05T06:40:12.380Z,15.85
2024-02-05T06:42:39.809Z,15.25
2024-02-05T06:45:09.134Z,15.77
2024-02-05T06:47:36.499Z,15.60
2024-02-05T06:50:04.088Z,16.88
2024-02-05T06:52:33.144Z,15.60
2024-02-05T06:55:00.528Z,14.80
2024-02-05T06:57:27.780Z,14.48
2024-02-05T06:59:55.007Z,15.32
2024-02-05T07:02:22.655Z,15.73
2024-02-05T07:04:50.128Z,15.85
2024-02-05T07:07:17.679Z,15.63
2024-02-05T07:09:44.904Z,15.98
2024-02-05T07:12:12.166Z,17.10
2024-02-05T07:14:39.336Z,15.07
2024-02-05T07:17:06.573Z,15.38
2024-02-05T07:19:33.855Z,16.15
2024-02-05T07:22:01.197Z,15.38
2024-02-05T07:24:28.352Z,15.45
2024-02-05T07:26:55.850Z,14.63
2024-02-05T07:29:23.302Z,14.57
2024-02-05T07:31:50.500Z,15.18
2024-02-05T07:34:17.884Z,14.38
2024-02-05T07:36:45.211Z,14.00
2024-02-05T07:39:13.592Z,13.50
2024-02-05T07:41:40.911Z,15.23
2024-02-05T07:44:08.179Z,14.10
2024-02-05T07:46:35.616Z,14.70
2024-02-05T07:49:02.967Z,14.38
2024-02-05T07:51:30.797Z,14.02
2024-02-05T07:53:58.318Z,14.65
2024-02-05T07:56:25.697Z,13.80
2024-02-05T07:58:52.878Z,13.95
2024-02-05T08:01:20.537Z,13.38
2024-02-05T08:03:48.002Z,13.93
2024-02-05T08:06:20.272Z,13.73
2024-02-05T08:08:47.717Z,14.45
2024-02-05T08:11:15.051Z,14.00
2024-02-05T08:13:42.216Z,14.35
2024-02-05T08:16:09.619Z,14.38
2024-02-05T08:18:37.342Z,13.38
2024-02-05T08:21:05.788Z,14.25
2024-02-05T08:23:33.094Z,13.95
2024-02-05T08:26:00.395Z,13.65
2024-02-05T08:28:27.709Z,13.75
2024-02-05T08:30:55.774Z,12.85
2024-02-05T08:33:23.096Z,14.52
2024-02-05T08:35:50.933Z,14.00
2024-02-05T08:38:18.164Z,13.38
2024-02-05T08:40:46.812Z,13.50
2024-02-05T08:43:14.078Z,13.65
2024-02-05T08:45:41.493Z,13.73
2024-02-05T08:48:08.972Z,13.32
2024-02-05T08:50:37.306Z,13.23
2024-02-05T08:53:05.795Z,12.77
2024-02-05T08:55:33.373Z,12.88
2024-02-05T08:58:01.074Z,13.50
2024-02-05T09:00:28.386Z,13.57
2024-02-05T09:02:55.620Z,14.38
2024-02-05T09:05:33.414Z,13.13
2024-02-05T09:08:08.158Z,13.13
2024-02-05T09:10:38.206Z,12.35
2024-02-05T09:13:05.565Z,12.23
2024-02-05T09:15:33.038Z,13.15
2024-02-05T09:18:00.330Z,13.32
2024-02-05T09:20:27.527Z,12.80
2024-02-05T09:22:55.373Z,12.65
2024-02-05T09:25:22.760Z,13.13
2024-02-05T09:27:50.332Z,12.95
2024-02-05T09:30:17.944Z,12.70
2024-02-05T09:32:45.353Z,13.18
2024-02-05T09:35:14.735Z,12.80
2024-02-05T09:37:42.014Z,12.60
2024-02-05T09:40:09.816Z,12.40
2024-02-05T09:42:38.479Z,13.60
2024-02-05T09:45:11.263Z,13.07
2024-02-05T09:50:08.659Z,12.32
2024-02-05T09:52:41.315Z,12.95
2024-02-05T09:55:12.849Z,12.80
2024-02-05T09:57:41.976Z,12.43
2024-02-05T10:00:12.400Z,12.93
2024-02-05T10:02:40.785Z,12.88
2024-02-05T10:05:18.598Z,12.98
2024-02-05T10:07:49.908Z,12.27
2024-02-05T10:10:19.220Z,11.98
2024-02-05T10:12:48.735Z,12.82
2024-02-05T10:15:16.163Z,13.30
2024-02-05T10:17:44.861Z,12.80
2024-02-05T10:20:14.585Z,12.10
2024-02-05T10:22:48.644Z,13.60
2024-02-05T10:25:17.517Z,13.18
2024-02-05T10:27:47.789Z,13.93
2024-02-05T10:30:18.739Z,13.35
2024-02-05T10:32:46.467Z,12.93
2024-02-05T10:35:17.476Z,12.40
2024-02-05T10:37:44.717Z,12.40
2024-02-05T10:40:12.587Z,12.73
2024-02-05T10:42:39.975Z,12.57
2024-02-05T10:45:08.550Z,12.60
2024-02-05T10:47:37.679Z,12.48
2024-02-05T10:50:08.842Z,13.70
2024-02-05T10:52:36.529Z,13.40
2024-02-05T10:55:08.262Z,13.05
2024-02-05T10:57:39.122Z,13.50
2024-02-05T11:00:09.710Z,13.05
2024-02-05T11:02:42.492Z,12.88
2024-02-05T11:07:53.547Z,13.10
2024-02-05T11:10:25.022Z,13.15
2024-02-05T11:13:01.484Z,12.57
2024-02-05T11:15:35.551Z,12.27
2024-02-05T11:18:15.523Z,13.07
2024-02-05T11:20:47.190Z,13.02
2024-02-05T11:23:16.360Z,13.32
2024-02-05T11:25:43.765Z,12.38
2024-02-05T11:28:12.129Z,13.15
2024-02-05T11:30:47.345Z,13.05
2024-02-05T11:33:28.274Z,13.15
2024-02-05T11:35:56.780Z,12.23
2024-02-05T11:38:24.874Z,13.23
2024-02-05T11:40:53.662Z,13.07
2024-02-05T11:43:25.552Z,13.48
2024-02-05T11:45:54.283Z,12.27
2024-02-05T11:48:22.138Z,12.30
2024-02-05T11:50:50.408Z,12.48
2024-02-05T11:53:22.788Z,12.65
2024-02-05T11:55:50.199Z,12.65
2024-02-05T11:58:17.461Z,13.18
2024-02-05T12:00:44.811Z,12.25
2024-02-05T12:03:13.865Z,12.77
2024-02-05T12:05:41.306Z,12.90
2024-02-05T12:08:10.208Z,12.50
2024-02-05T12:10:38.491Z,12.52
2024-02-05T12:13:05.769Z,12.50
2024-02-05T12:15:38.927Z,12.65
2024-02-05T12:18:09.321Z,13.13
2024-02-05T12:20:36.733Z,13.20
2024-02-05T12:23:05.512Z,13.40
2024-02-05T12:25:41.164Z,12.32
2024-02-05T12:28:14.170Z,12.93
2024-02-05T12:30:41.807Z,12.70
2024-02-05T12:33:16.420Z,12.07
2024-02-05T12:35:44.244Z,12.60
2024-02-05T12:38:11.563Z,12.15
2024-02-05T12:40:39.503Z,12.35
2024-02-05T12:43:07.065Z,12.18
2024-02-05T12:45:34.398Z,12.40
2024-02-05T12:48:02.884Z,13.48
2024-02-05T12:50:33.484Z,14.18
2024-02-05T12:53:01.631Z,12.30
2024-02-05T12:55:29.489Z,12.32
2024-02-05T12:57:57.213Z,12.63
2024-02-05T13:00:24.595Z,12.00
2024-02-05T13:03:05.075Z,13.05
2024-02-05T13:05:33.151Z,13.02
2024-02-05T13:08:02.058Z,12.63
2024-02-05T13:10:29.610Z,13.05
2024-02-05T13:12:57.250Z,12.27
2024-02-05T13:15:27.143Z,12.77
2024-02-05T13:18:00.442Z,12.95
2024-02-05T13:20:28.362Z,12.82
2024-02-05T13:22:55.854Z,12.65
2024-02-05T13:25:23.977Z,12.43
2024-02-05T13:27:51.855Z,13.20
2024-02-05T13:30:19.112Z,13.15
2024-02-05T13:32:46.412Z,12.45
2024-02-05T13:35:13.865Z,13.00
2024-02-05T13:37:41.193Z,12.80
2024-02-05T13:40:09.487Z,13.10
2024-02-05T13:42:40.417Z,13.48
2024-02-05T13:45:08.094Z,12.90
2024-02-05T13:47:35.936Z,13.50
2024-02-05T13:50:04.382Z,12.77
2024-02-05T13:52:31.888Z,13.55
2024-02-05T13:54:59.276Z,13.15
2024-02-05T13:57:26.476Z,12.85
2024-02-05T13:59:53.739Z,12.30
2024-02-05T14:02:21.776Z,12.48
2024-02-05T14:04:51.175Z,12.60
2024-02-05T14:07:19.134Z,12.75
2024-02-05T14:09:47.327Z,12.30
2024-02-05T14:12:15.272Z,12.02
2024-02-05T14:14:42.516Z,12.43
2024-02-05T14:17:10.070Z,12.68
2024-02-05T14:19:37.815Z,12.63
2024-02-05T14:22:06.131Z,11.80
2024-02-05T14:24:34.200Z,12.20
2024-02-05T14:27:01.579Z,12.82
2024-02-05T14:29:28.783Z,12.27
2024-02-05T14:31:56.146Z,12.60
2024-02-05T14:34:23.869Z,11.93
2024-02-05T14:36:51.339Z,11.95
2024-02-05T14:39:19.129Z,12.82
2024-02-05T14:41:52.178Z,11.90
2024-02-05T14:44:20.579Z,12.00
2024-02-05T14:46:48.302Z,12.98
2024-02-05T14:49:16.560Z,12.13
2024-02-05T14:51:46.681Z,13.60
2024-02-05T14:54:14.896Z,12.05
2024-02-05T14:56:43.265Z,12.38
2024-02-05T14:59:10.606Z,12.48
2024-02-05T15:01:38.448Z,12.05
2024-02-05T15:04:06.471Z,11.73
2024-02-05T15:06:33.994Z,12.70
2024-02-05T15:09:03.049Z,12.50
2024-02-05T15:11:30.300Z,12.45
2024-02-05T15:13:57.547Z,12.95
2024-02-05T15:16:24.855Z,12.43
2024-02-05T15:18:52.207Z,11.93
2024-02-05T15:21:20.312Z,12.40
2024-02-05T15:23:47.601Z,12.23
2024-02-05T15:26:14.885Z,12.73
2024-02-05T15:28:42.256Z,14.50
2024-02-05T15:31:09.847Z,14.02
2024-02-05T15:33:39.865Z,13.65
2024-02-05T15:36:07.861Z,13.48
2024-02-05T15:38:35.427Z,12.82
2024-02-05T15:41:02.892Z,13.45
2024-02-05T15:43:30.213Z,13.52
2024-02-05T15:45:57.677Z,13.40
2024-02-05T15:48:25.475Z,13.80
2024-02-05T15:50:54.236Z,13.82
2024-02-05T15:53:21.410Z,13.70
2024-02-05T15:55:48.805Z,13.27
2024-02-05T15:58:16.966Z,13.20
2024-02-05T16:00:44.790Z,13.50
2024-02-05T16:03:12.110Z,14.23
2024-02-05T16:05:40.056Z,12.60
2024-02-05T16:08:07.938Z,13.85
2024-02-05T16:10:39.476Z,13.55
2024-02-05T16:13:07.478Z,13.52
2024-02-05T16:15:34.880Z,14.25
2024-02-05T16:18:02.663Z,14.02
2024-02-05T16:20:30.464Z,14.13
2024-02-05T16:22:57.712Z,13.95
2024-02-05T16:25:31.614Z,14.23
2024-02-05T16:27:59.469Z,14.05
2024-02-05T16:30:27.273Z,14.50
2024-02-05T16:32:54.584Z,14.02
2024-02-05T16:35:22.079Z,14.48
2024-02-05T16:37:49.385Z,13.85
2024-02-05T16:40:17.113Z,14.15
2024-02-05T16:42:44.268Z,13.63
2024-02-05T16:45:11.605Z,14.07
2024-02-05T16:47:38.967Z,14.00
2024-02-05T16:50:07.371Z,14.52
2024-02-05T16:52:34.988Z,13.98
2024-02-05T16:55:02.374Z,13.85
2024-02-05T16:57:29.623Z,14.63
2024-02-05T16:59:56.974Z,14.48
2024-02-05T17:02:24.261Z,14.25
2024-02-05T17:04:53.970Z,14.25
2024-02-05T17:07:21.378Z,14.48
2024-02-05T17:09:48.856Z,13.98
2024-02-05T17:12:16.162Z,13.57
2024-02-05T17:14:43.358Z,14.80
2024-02-05T17:17:10.775Z,13.98
2024-02-05T17:19:39.779Z,13.23
2024-02-05T17:22:07.740Z,13.65
2024-02-05T17:24:36.376Z,13.43
2024-02-05T17:27:04.956Z,14.18
2024-02-05T17:29:32.158Z,13.23
2024-02-05T17:31:59.769Z,13.02
2024-02-05T17:34:27.198Z,13.93
2024-02-05T17:36:54.678Z,15.23
2024-02-05T17:39:23.070Z,13.75
2024-02-05T17:41:50.785Z,13.55
2024-02-05T17:44:18.024Z,13.68
2024-02-05T17:46:46.869Z,14.35
2024-02-05T17:49:21.139Z,14.20
2024-02-05T17:51:48.524Z,14.52
2024-02-05T17:54:17.304Z,14.45
2024-02-05T17:56:45.663Z,13.60
2024-02-05T17:59:12.983Z,13.82
2024-02-05T18:01:40.403Z,13.70
2024-02-05T18:04:07.792Z,13.85
2024-02-05T18:06:35.118Z,14.20
2024-02-05T18:09:02.664Z,13.98
2024-02-05T18:11:30.116Z,13.80
2024-02-05T18:13:57.653Z,13.60
2024-02-05T18:16:25.553Z,12.88
2024-02-05T18:18:53.132Z,13.45
2024-02-05T18:21:21.709Z,13.73
2024-02-05T18:23:49.037Z,13.48
2024-02-05T18:26:16.316Z,13.23
2024-02-05T18:28:43.512Z,13.50
2024-02-05T18:31:12.406Z,14.43
2024-02-05T18:33:39.823Z,14.07
2024-02-05T18:36:07.886Z,13.95
2024-02-05T18:38:37.504Z,14.35
2024-02-05T18:41:06.042Z,14.05
2024-02-05T18:43:33.446Z,13.05
2024-02-05T18:46:02.972Z,13.13
2024-02-05T18:48:31.047Z,12.80
2024-02-05T18:50:58.567Z,12.88
2024-02-05T18:53:25.813Z,13.10
2024-02-05T18:55:53.138Z,13.07
2024-02-05T18:58:20.518Z,12.70
2024-02-05T19:00:47.824Z,12.82
2024-02-05T19:03:15.181Z,12.60
2024-02-05T19:05:42.797Z,12.55
2024-02-05T19:08:10.777Z,12.70
2024-02-05T19:10:38.251Z,12.82
2024-02-05T19:13:05.913Z,13.02
2024-02-05T19:15:33.910Z,12.80
2024-02-05T19:18:01.373Z,12.93
2024-02-05T19:20:31.695Z,13.27
2024-02-05T19:22:58.941Z,12.63
2024-02-05T19:25:28.923Z,12.93
2024-02-05T19:27:56.318Z,13.18
2024-02-05T19:30:24.194Z,13.15
2024-02-05T19:32:51.561Z,13.05
2024-02-05T19:35:19.069Z,13.15
2024-02-05T19:37:46.536Z,12.63
2024-02-05T19:40:15.149Z,12.88
2024-02-05T19:42:42.415Z,12.68
2024-02-05T19:45:11.238Z,13.07
2024-02-05T19:47:38.892Z,12.55
2024-02-05T19:50:08.129Z,12.63
2024-02-05T19:52:35.511Z,12.75
2024-02-05T19:55:10.027Z,12.95
2024-02-05T19:57:42.708Z,13.55
2024-02-05T20:00:12.679Z,12.40
2024-02-05T20:02:40.754Z,12.27
2024-02-05T20:05:09.070Z,12.90
2024-02-05T20:07:36.505Z,12.20
2024-02-05T20:10:04.655Z,13.27
2024-02-05T20:12:31.982Z,13.23
2024-02-05T20:14:59.310Z,12.73
2024-02-05T20:17:27.428Z,13.23
2024-02-05T20:19:55.250Z,13.18
2024-02-05T20:22:23.097Z,12.70
2024-02-05T20:24:51.461Z,12.63
2024-02-05T20:27:18.742Z,13.48
2024-02-05T20:29:46.542Z,14.27
2024-02-05T20:32:19.156Z,14.23
2024-02-05T20:34:47.047Z,13.57
2024-02-05T20:37:16.923Z,14.10
2024-02-05T20:39:44.696Z,13.52
2024-02-05T20:42:13.952Z,13.73
2024-02-05T20:44:41.896Z,13.50
2024-02-05T20:47:09.175Z,13.10
2024-02-05T20:49:36.648Z,13.35
2024-02-05T20:52:04.814Z,13.27
2024-02-05T20:54:32.013Z,13.07
2024-02-05T20:57:00.408Z,12.95
2024-02-05T20:59:28.101Z,12.93
2024-02-05T21:01:55.387Z,13.48
2024-02-05T21:04:22.787Z,13.60
2024-02-05T21:06:50.292Z,13.27
2024-02-05T21:09:19.095Z,12.07
2024-02-05T21:11:46.331Z,13.45
2024-02-05T21:14:14.030Z,13.07
2024-02-05T21:16:45.744Z,12.40
2024-02-05T21:19:20.627Z,12.65
2024-02-05T21:21:47.917Z,12.40
2024-02-05T21:24:15.323Z,13.13
2024-02-05T21:26:42.611Z,12.52
2024-02-05T21:29:16.640Z,11.90
2024-02-05T21:31:43.837Z,12.20
2024-02-05T21:34:11.393Z,12.30
2024-02-05T21:36:39.386Z,12.05
2024-02-05T21:39:06.575Z,11.52
2024-02-05T21:41:34.148Z,12.00
2024-02-05T21:44:01.382Z,12.57
2024-02-05T21:46:30.303Z,11.75
2024-02-05T21:48:57.567Z,12.40
2024-02-05T21:51:24.878Z,12.30
2024-02-05T21:53:52.067Z,12.95
2024-02-05T21:56:19.837Z,12.57
2024-02-05T21:58:47.582Z,12.43
2024-02-05T22:01:14.775Z,12.95
2024-02-05T22:03:42.042Z,11.60
2024-02-05T22:06:09.571Z,12.32
2024-02-05T22:08:36.920Z,12.05
2024-02-05T22:11:04.368Z,12.32
2024-02-05T22:13:31.624Z,12.35
2024-02-05T22:15:59.148Z,11.77
2024-02-05T22:18:27.259Z,11.48
2024-02-05T22:20:57.194Z,12.20
2024-02-05T22:23:24.415Z,12.13
2024-02-05T22:25:52.550Z,11.40
2024-02-05T22:28:19.946Z,12.30
2024-02-05T22:30:47.222Z,12.20
2024-02-05T22:33:15.865Z,12.98
2024-02-05T22:35:43.629Z,12.25
2024-02-05T22:38:11.238Z,12.43
2024-02-05T22:40:38.606Z,12.50
2024-02-05T22:43:05.885Z,11.82
2024-02-05T22:45:33.228Z,12.25
2024-02-05T22:48:00.657Z,11.95
2024-02-05T22:50:29.968Z,12.32
2024-02-05T22:52:57.294Z,11.90
2024-02-05T22:55:24.524Z,12.07
2024-02-05T22:57:51.822Z,11.95
2024-02-05T23:00:28.410Z,12.40
2024-02-05T23:02:56.291Z,12.05
2024-02-05T23:05:24.344Z,12.13
2024-02-05T23:07:52.216Z,13.35
2024-02-05T23:10:20.603Z,12.25
2024-02-05T23:12:48.416Z,11.90
2024-02-05T23:15:16.127Z,11.80
2024-02-05T23:17:43.616Z,12.85
2024-02-05T23:20:11.363Z,12.10
2024-02-05T23:22:39.394Z,12.35
2024-02-05T23:25:07.332Z,12.43
2024-02-05T23:27:35.386Z,12.20
2024-02-05T23:30:03.169Z,11.82
2024-02-05T23:32:30.343Z,11.77
2024-02-05T23:34:58.081Z,12.30
2024-02-05T23:37:25.313Z,12.35
2024-02-05T23:39:53.133Z,12.73
2024-02-05T23:42:20.454Z,11.98
2024-02-05T23:44:47.655Z,12.32
2024-02-05T23:47:17.496Z,12.48
2024-02-05T23:49:44.854Z,12.15
2024-02-05T23:52:17.436Z,12.18
2024-02-05T23:54:44.804Z,12.45
2024-02-05T23:57:14.040Z,12.27
2024-02-05T23:59:41.252Z,12.45
